Artemis — PFCB — position and weather

sailwx.info

Track history (hours):
 
Tides and Currents Weather Stations Pressure Air Temp Water Temp Dewpoint Dewpoint Depression Visibility Wind Speed Wind Dir Waves Ship Positions

Artemis (Netherlands)

Ship's website: http://www.tallship-company.com/artemis/gb_artemis.htm

Last reported at 2020-Jan-18 20:28 UTC. Time now 2020-Jan-18 20:43 UTC.
Position N 52°40' E 005°36'.

Length 59 m; draft 3.4 m.

Type: Sailing vessel. MMSI: 244875000.

Date/timePositionNaut miles runAvg speedWind from/ knotsBaromVisibWave heightAir tempDewpointWater temp
2020-Jan-18 20:28N 52°40' E 005°36'0 0.0
2020-Jan-18 19:28N 52°40' E 005°36'0 0.0
2020-Jan-18 17:58N 52°40' E 005°36'0 0.0
2020-Jan-18 17:28N 52°40' E 005°36'0 0.0
2020-Jan-18 16:28N 52°40' E 005°36'0 0.0
2020-Jan-18 15:28N 52°40' E 005°36'0 0.0
2020-Jan-18 14:58N 52°40' E 005°36'0 0.0
2020-Jan-18 13:28N 52°40' E 005°36'0 0.0
2020-Jan-18 10:28N 52°40' E 005°36'0 0.0
2020-Jan-18 09:58N 52°40' E 005°36'0 0.0
2020-Jan-18 06:28N 52°40' E 005°36'0 0.0
2020-Jan-18 05:58N 52°40' E 005°36'0 0.0
2020-Jan-18 03:58N 52°40' E 005°36'0 0.0
2020-Jan-18 01:58N 52°40' E 005°36'0 0.0
2020-Jan-18 00:58N 52°40' E 005°36'0 0.0
2020-Jan-17 23:58N 52°40' E 005°36'0 0.0
2020-Jan-17 19:58N 52°40' E 005°36'0 0.0
2020-Jan-17 18:28N 52°40' E 005°36'0 0.0
2020-Jan-17 17:28N 52°40' E 005°36'0 0.0
2020-Jan-17 16:28N 52°40' E 005°36'0 0.0
2020-Jan-17 14:58N 52°40' E 005°36'0 0.0
2020-Jan-17 11:28N 52°40' E 005°36'0 0.0
2020-Jan-17 08:28N 52°40' E 005°36'0 0.0
2020-Jan-17 06:58N 52°40' E 005°36'0 0.0
2020-Jan-17 04:58N 52°40' E 005°36'0 0.0
2020-Jan-17 04:28N 52°40' E 005°36'0 0.0
2020-Jan-17 03:58N 52°40' E 005°36'0 0.0
2020-Jan-17 02:28N 52°40' E 005°36'0 0.0
2020-Jan-17 00:28N 52°40' E 005°36'0 0.0
2020-Jan-16 17:28N 52°40' E 005°36'0 0.0
2020-Jan-16 16:58N 52°40' E 005°36'0 0.0
2020-Jan-16 13:58N 52°40' E 005°36'0 0.0
2020-Jan-16 12:58N 52°40' E 005°36'0 0.0
2020-Jan-16 12:28N 52°40' E 005°36'0 0.0
2020-Jan-16 11:58N 52°40' E 005°36'0 0.0
2020-Jan-16 10:58N 52°40' E 005°36'0 0.0
2020-Jan-16 09:28N 52°40' E 005°36'0 0.0
2020-Jan-16 08:28N 52°40' E 005°36'0 0.0
2020-Jan-16 04:28N 52°40' E 005°36'0 0.0
2020-Jan-16 03:58N 52°40' E 005°36'0 0.0
2020-Jan-16 02:58N 52°40' E 005°36'0 0.0
2020-Jan-16 02:28N 52°40' E 005°36'0 0.0
2020-Jan-16 01:28N 52°40' E 005°36'0 0.0
2020-Jan-15 23:28N 52°40' E 005°36'0 0.0
2020-Jan-15 22:28N 52°40' E 005°36'0 0.0
2020-Jan-15 19:58N 52°40' E 005°36'0 0.0
2020-Jan-15 19:28N 52°40' E 005°36'0 0.0
2020-Jan-15 17:58N 52°40' E 005°36'0 0.0
2020-Jan-15 13:58N 52°40' E 005°36'0 0.0
2020-Jan-15 12:28N 52°40' E 005°36'0 0.0
2020-Jan-15 11:25N 52°40' E 005°36'0 0.0
2020-Jan-15 09:28N 52°40' E 005°36'0 0.0
2020-Jan-15 08:28N 52°40' E 005°36'0 0.0
2020-Jan-15 04:58N 52°40' E 005°36'0 0.0
2020-Jan-15 03:28N 52°40' E 005°36'0 0.0
2020-Jan-15 02:28N 52°40' E 005°36'0 0.0
2020-Jan-15 01:28N 52°40' E 005°36'0 0.0
2020-Jan-14 23:58N 52°40' E 005°36'0 0.0
2020-Jan-14 21:28N 52°40' E 005°36'0 0.0
2020-Jan-14 20:58N 52°40' E 005°36'0 0.0
2020-Jan-14 19:28N 52°40' E 005°36'0 0.1
2020-Jan-14 18:30N 52°39' E 005°36'2 3.8
2020-Jan-14 18:00N 52°40' E 005°33'1 2.1
2020-Jan-14 17:30N 52°41' E 005°32'2 3.1
2020-Jan-14 17:00N 52°42' E 005°30'10 4.9
2020-Jan-14 15:00N 52°48' E 005°18'3 5.8
2020-Jan-14 14:30N 52°51' E 005°19'6 6.4
2020-Jan-14 13:30N 52°57' E 005°19'7 4.7
2020-Jan-14 12:00N 53°05' E 005°20'2 4.8
2020-Jan-14 11:30N 53°06' E 005°22'3 5.8
2020-Jan-14 11:00N 53°09' E 005°23'2 1.5
2020-Jan-14 10:00N 53°11' E 005°25'0 0.0
2020-Jan-14 07:30N 53°11' E 005°25'0 0.0
2020-Jan-14 06:00N 53°11' E 005°25'0 0.0
2020-Jan-14 05:30N 53°11' E 005°25'0 0.0
2020-Jan-14 01:00N 53°11' E 005°25'0 0.0
2020-Jan-13 20:30N 53°11' E 005°25'0 0.0
2020-Jan-13 18:00N 53°11' E 005°25'  
Track history (hours):
 
Tides and Currents Weather Stations Pressure Air Temp Water Temp Dewpoint Dewpoint Depression Visibility Wind Speed Wind Dir Waves Ship Positions

Artemis (Netherlands)

Ship's website: http://www.tallship-company.com/artemis/gb_artemis.htm

Last reported at 2020-Jan-18 20:28 UTC. Time now 2020-Jan-18 20:43 UTC.
Position N 52°40' E 005°36'.

Length 59 m; draft 3.4 m.

Type: Sailing vessel. MMSI: 244875000.

Date/timePositionNaut miles runAvg speedWind from/ knotsBaromVisibWave heightAir tempDewpointWater temp
2020-Jan-18 20:28N 52°40' E 005°36'0 0.0
2020-Jan-18 19:28N 52°40' E 005°36'0 0.0
2020-Jan-18 17:58N 52°40' E 005°36'0 0.0
2020-Jan-18 17:28N 52°40' E 005°36'0 0.0
2020-Jan-18 16:28N 52°40' E 005°36'0 0.0
2020-Jan-18 15:28N 52°40' E 005°36'0 0.0
2020-Jan-18 14:58N 52°40' E 005°36'0 0.0
2020-Jan-18 13:28N 52°40' E 005°36'0 0.0
2020-Jan-18 10:28N 52°40' E 005°36'0 0.0
2020-Jan-18 09:58N 52°40' E 005°36'0 0.0
2020-Jan-18 06:28N 52°40' E 005°36'0 0.0
2020-Jan-18 05:58N 52°40' E 005°36'0 0.0
2020-Jan-18 03:58N 52°40' E 005°36'0 0.0
2020-Jan-18 01:58N 52°40' E 005°36'0 0.0
2020-Jan-18 00:58N 52°40' E 005°36'0 0.0
2020-Jan-17 23:58N 52°40' E 005°36'0 0.0
2020-Jan-17 19:58N 52°40' E 005°36'0 0.0
2020-Jan-17 18:28N 52°40' E 005°36'0 0.0
2020-Jan-17 17:28N 52°40' E 005°36'0 0.0
2020-Jan-17 16:28N 52°40' E 005°36'0 0.0
2020-Jan-17 14:58N 52°40' E 005°36'0 0.0
2020-Jan-17 11:28N 52°40' E 005°36'0 0.0
2020-Jan-17 08:28N 52°40' E 005°36'0 0.0
2020-Jan-17 06:58N 52°40' E 005°36'0 0.0
2020-Jan-17 04:58N 52°40' E 005°36'0 0.0
2020-Jan-17 04:28N 52°40' E 005°36'0 0.0
2020-Jan-17 03:58N 52°40' E 005°36'0 0.0
2020-Jan-17 02:28N 52°40' E 005°36'0 0.0
2020-Jan-17 00:28N 52°40' E 005°36'0 0.0
2020-Jan-16 17:28N 52°40' E 005°36'0 0.0
2020-Jan-16 16:58N 52°40' E 005°36'0 0.0
2020-Jan-16 13:58N 52°40' E 005°36'0 0.0
2020-Jan-16 12:58N 52°40' E 005°36'0 0.0
2020-Jan-16 12:28N 52°40' E 005°36'0 0.0
2020-Jan-16 11:58N 52°40' E 005°36'0 0.0
2020-Jan-16 10:58N 52°40' E 005°36'0 0.0
2020-Jan-16 09:28N 52°40' E 005°36'0 0.0
2020-Jan-16 08:28N 52°40' E 005°36'0 0.0
2020-Jan-16 04:28N 52°40' E 005°36'0 0.0
2020-Jan-16 03:58N 52°40' E 005°36'0 0.0
2020-Jan-16 02:58N 52°40' E 005°36'0 0.0
2020-Jan-16 02:28N 52°40' E 005°36'0 0.0
2020-Jan-16 01:28N 52°40' E 005°36'0 0.0
2020-Jan-15 23:28N 52°40' E 005°36'0 0.0
2020-Jan-15 22:28N 52°40' E 005°36'0 0.0
2020-Jan-15 19:58N 52°40' E 005°36'0 0.0
2020-Jan-15 19:28N 52°40' E 005°36'0 0.0
2020-Jan-15 17:58N 52°40' E 005°36'0 0.0
2020-Jan-15 13:58N 52°40' E 005°36'0 0.0
2020-Jan-15 12:28N 52°40' E 005°36'0 0.0
2020-Jan-15 11:25N 52°40' E 005°36'0 0.0
2020-Jan-15 09:28N 52°40' E 005°36'0 0.0
2020-Jan-15 08:28N 52°40' E 005°36'0 0.0
2020-Jan-15 04:58N 52°40' E 005°36'0 0.0
2020-Jan-15 03:28N 52°40' E 005°36'0 0.0
2020-Jan-15 02:28N 52°40' E 005°36'0 0.0
2020-Jan-15 01:28N 52°40' E 005°36'0 0.0
2020-Jan-14 23:58N 52°40' E 005°36'0 0.0
2020-Jan-14 21:28N 52°40' E 005°36'0 0.0
2020-Jan-14 20:58N 52°40' E 005°36'0 0.0
2020-Jan-14 19:28N 52°40' E 005°36'0 0.1
2020-Jan-14 18:30N 52°39' E 005°36'2 3.8
2020-Jan-14 18:00N 52°40' E 005°33'1 2.1
2020-Jan-14 17:30N 52°41' E 005°32'2 3.1
2020-Jan-14 17:00N 52°42' E 005°30'10 4.9
2020-Jan-14 15:00N 52°48' E 005°18'3 5.8
2020-Jan-14 14:30N 52°51' E 005°19'6 6.4
2020-Jan-14 13:30N 52°57' E 005°19'7 4.7
2020-Jan-14 12:00N 53°05' E 005°20'2 4.8
2020-Jan-14 11:30N 53°06' E 005°22'3 5.8
2020-Jan-14 11:00N 53°09' E 005°23'2 1.5
2020-Jan-14 10:00N 53°11' E 005°25'0 0.0
2020-Jan-14 07:30N 53°11' E 005°25'0 0.0
2020-Jan-14 06:00N 53°11' E 005°25'0 0.0
2020-Jan-14 05:30N 53°11' E 005°25'0 0.0
2020-Jan-14 01:00N 53°11' E 005°25'0 0.0
2020-Jan-13 20:30N 53°11' E 005°25'0 0.0
2020-Jan-13 18:00N 53°11' E 005°25'  

Dump ship's entire track history